Time;durP1;ratioP1;P1;durP2;ratioP2;P2;SDS_P1;SDS_P2;PMS_P1;PMS_P2;Temp;Humidity;BMP_temperature;BMP_pressure;BME280_temperature;BME280_humidity;BME280_pressure;Samples;Min_cycle;Max_cycle;Signal;HPM_P1;HPM_P2
2021/07/14 00:00:19;;;;;;;12.90;10.32;;;;;;;24.55;65.05;100278.25;699472;28;23428;-63
2021/07/14 00:00:40;;;;;;;14.10;10.60;;;;;;;24.55;64.72;100273.56;696861;28;70255;-63
2021/07/14 00:01:02;;;;;;;14.32;10.40;;;;;;;24.55;65.39;100275.50;698821;28;44383;-63
2021/07/14 00:01:24;;;;;;;11.45;10.20;;;;;;;24.53;65.39;100273.03;698570;28;46258;-63
2021/07/14 00:01:45;;;;;;;11.38;10.23;;;;;;;24.55;65.46;100273.56;699540;28;19379;-63
2021/07/14 00:02:06;;;;;;;11.55;10.15;;;;;;;24.55;65.44;100275.50;699532;28;23146;-63
2021/07/14 00:02:27;;;;;;;12.32;10.18;;;;;;;24.54;64.97;100271.06;699907;28;13425;-63
2021/07/14 00:02:50;;;;;;;12.60;9.90;;;;;;;24.54;64.95;100271.06;700539;28;893;-63
2021/07/14 00:03:11;;;;;;;11.20;10.00;;;;;;;24.54;65.09;100276.59;699086;28;1688;-63
2021/07/14 00:03:32;;;;;;;13.38;10.30;;;;;;;24.53;65.42;100272.16;698848;28;22470;-63
2021/07/14 00:03:53;;;;;;;11.57;10.38;;;;;;;24.55;64.87;100278.25;699608;28;22307;-63
2021/07/14 00:04:14;;;;;;;11.50;10.40;;;;;;;24.56;64.99;100274.38;699446;28;24411;-63
2021/07/14 00:04:36;;;;;;;11.02;9.90;;;;;;;24.54;65.25;100280.16;696323;28;22490;-63
2021/07/14 00:04:58;;;;;;;11.40;10.20;;;;;;;24.52;64.89;100271.34;694254;28;1541;-63
2021/07/14 00:05:22;;;;;;;12.07;10.48;;;;;;;24.52;64.74;100271.34;693082;28;1242;-63
2021/07/14 00:05:43;;;;;;;11.60;10.27;;;;;;;24.52;65.27;100276.06;692046;28;38644;-63
2021/07/14 00:06:04;;;;;;;12.13;10.35;;;;;;;24.52;64.72;100273.28;692500;28;23431;-63
2021/07/14 00:06:26;;;;;;;12.05;10.18;;;;;;;24.52;65.13;100270.53;694084;28;17189;-63
2021/07/14 00:06:47;;;;;;;11.25;9.65;;;;;;;24.51;64.87;100266.13;697560;28;45063;-64
2021/07/14 00:07:09;;;;;;;11.48;10.18;;;;;;;24.50;65.12;100264.44;700179;28;940;-63
2021/07/14 00:07:30;;;;;;;11.45;10.25;;;;;;;24.50;65.41;100264.44;699467;28;19885;-64
2021/07/14 00:07:51;;;;;;;12.05;10.50;;;;;;;24.49;65.47;100263.63;699159;28;13305;-63
2021/07/14 00:08:13;;;;;;;13.75;11.05;;;;;;;24.49;65.43;100265.59;697835;28;44381;-63
2021/07/14 00:08:34;;;;;;;12.02;10.73;;;;;;;24.47;65.32;100260.34;698246;28;46241;-63
2021/07/14 00:08:55;;;;;;;12.40;10.63;;;;;;;24.46;65.73;100265.00;699505;28;13948;-63
2021/07/14 00:09:16;;;;;;;12.20;10.63;;;;;;;24.47;65.50;100257.59;699243;28;18391;-63
2021/07/14 00:09:38;;;;;;;11.30;10.15;;;;;;;24.45;65.71;100255.09;699805;28;951;-63
2021/07/14 00:10:09;;;;;;;11.93;10.73;;;;;;;24.42;66.13;100257.56;698307;28;38881;-63
2021/07/14 00:10:31;;;;;;;11.70;10.50;;;;;;;24.42;65.93;100244.63;698025;28;60826;-63
2021/07/14 00:10:52;;;;;;;11.40;10.25;;;;;;;24.41;65.62;100242.97;697520;28;69533;-63
2021/07/14 00:11:14;;;;;;;11.48;10.27;;;;;;;24.40;66.08;100246.00;699240;28;21575;-63
2021/07/14 00:11:39;;;;;;;13.70;10.20;;;;;;;24.39;66.28;100244.34;699086;28;23401;-63
2021/07/14 00:12:03;;;;;;;12.33;10.47;;;;;;;24.35;65.92;100244.09;695597;28;138171;-63
2021/07/14 00:12:27;;;;;;;11.55;9.88;;;;;;;24.34;66.62;100252.66;698422;28;37435;-63
2021/07/14 00:12:55;;;;;;;11.85;9.98;;;;;;;24.31;66.54;100243.00;694740;28;69482;-63
2021/07/14 00:13:28;;;;;;;12.65;10.57;;;;;;;24.29;66.68;100242.44;692581;28;135994;-63
2021/07/14 00:14:02;;;;;;;11.85;10.60;;;;;;;24.28;66.15;100233.34;692006;28;157330;-63
2021/07/14 00:14:55;;;;;;;12.55;10.48;;;;;;;24.27;66.10;100239.97;693913;28;93921;-63
2021/07/14 00:17:25;;;;;;;12.05;10.75;;;;;;;24.26;66.53;100220.94;691523;28;161415;-63
2021/07/14 00:22:05;;;;;;;15.07;10.68;;;;;;;24.26;66.74;100223.69;693348;28;122067;-63
2021/07/14 00:22:17;;;;;;;12.82;10.68;;;;;;;24.17;67.59;100220.72;689531;28;136509;-63
2021/07/14 00:22:40;;;;;;;13.43;10.85;;;;;;;24.14;67.52;100221.25;694069;28;892;-63
2021/07/14 00:23:01;;;;;;;12.45;10.93;;;;;;;24.15;67.99;100217.38;693853;28;902;-63
2021/07/14 00:23:23;;;;;;;11.43;10.32;;;;;;;24.15;67.59;100222.09;693493;28;1761;-63
2021/07/14 00:23:45;;;;;;;11.60;10.50;;;;;;;24.11;67.79;100213.56;693363;28;23407;-63
2021/07/14 00:24:07;;;;;;;11.77;10.57;;;;;;;24.11;67.58;100214.38;693119;28;46351;-63
2021/07/14 00:24:28;;;;;;;11.68;10.45;;;;;;;24.10;67.64;100220.97;695193;28;35530;-63
2021/07/14 00:24:49;;;;;;;11.35;10.20;;;;;;;24.09;68.03;100224.00;698615;28;23538;-63
2021/07/14 00:25:12;;;;;;;13.48;10.85;;;;;;;24.08;67.95;100225.16;699459;28;21328;-63
2021/07/14 00:25:34;;;;;;;11.52;10.32;;;;;;;24.08;67.87;100225.16;697836;28;69287;-63
2021/07/14 00:25:55;;;;;;;11.27;10.27;;;;;;;24.06;68.15;100228.19;699723;28;16623;-63
2021/07/14 00:26:16;;;;;;;12.47;11.17;;;;;;;24.04;67.94;100238.66;699077;28;37738;-63
2021/07/14 00:26:37;;;;;;;11.97;10.77;;;;;;;24.05;68.22;100234.78;698032;28;45005;-63
2021/07/14 00:26:59;;;;;;;12.43;10.48;;;;;;;24.06;68.11;100227.34;698777;28;34223;-63
2021/07/14 00:27:20;;;;;;;12.82;10.75;;;;;;;24.06;68.20;100230.94;698132;28;45158;-62
2021/07/14 00:27:44;;;;;;;11.88;10.65;;;;;;;24.06;67.99;100227.34;699429;28;21199;-63
2021/07/14 00:28:05;;;;;;;12.38;10.55;;;;;;;24.05;67.86;100225.69;697423;28;64473;-63
2021/07/14 00:28:26;;;;;;;13.25;10.82;;;;;;;24.05;67.92;100234.78;699088;28;17858;-63
2021/07/14 00:28:51;;;;;;;14.35;10.48;;;;;;;24.03;68.12;100238.97;698258;28;44978;-63
2021/07/14 00:29:15;;;;;;;15.75;10.90;;;;;;;24.01;68.23;100241.16;694819;28;90005;-63
2021/07/14 00:29:40;;;;;;;16.50;11.07;;;;;;;24.01;67.90;100235.63;694709;28;93082;-63
2021/07/14 00:30:08;;;;;;;13.55;11.15;;;;;;;24.02;68.14;100243.63;696663;28;45662;-63
2021/07/14 00:30:31;;;;;;;12.82;11.00;;;;;;;24.00;68.52;100237.56;695838;28;61243;-63
2021/07/14 00:30:55;;;;;;;12.93;10.88;;;;;;;23.99;68.36;100246.13;696696;28;58137;-63
2021/07/14 00:31:18;;;;;;;13.82;11.68;;;;;;;23.97;68.73;100243.66;698416;28;38734;-63
2021/07/14 00:31:39;;;;;;;12.57;11.15;;;;;;;23.96;68.82;100246.69;698373;28;34095;-63
2021/07/14 00:32:01;;;;;;;12.55;10.70;;;;;;;23.93;68.93;100239.78;699731;28;23737;-63
2021/07/14 00:32:23;;;;;;;12.00;10.77;;;;;;;23.93;68.99;100239.78;699179;28;15915;-63
2021/07/14 00:32:44;;;;;;;12.48;11.10;;;;;;;23.93;68.58;100250.81;698394;28;43963;-63
2021/07/14 00:33:05;;;;;;;12.38;11.00;;;;;;;23.93;68.29;100248.91;699107;28;22367;-64
2021/07/14 00:33:27;;;;;;;12.63;10.88;;;;;;;23.94;68.19;100244.19;695718;28;12800;-63
2021/07/14 00:33:49;;;;;;;13.00;11.17;;;;;;;23.96;68.00;100246.69;695300;28;47321;-63
2021/07/14 00:34:10;;;;;;;12.95;11.02;;;;;;;23.94;68.01;100241.44;694910;28;67701;-63
2021/07/14 00:34:32;;;;;;;11.90;10.70;;;;;;;23.93;67.52;100240.63;697199;28;837;-63
2021/07/14 00:34:54;;;;;;;11.75;10.48;;;;;;;23.91;67.78;100247.50;696616;28;23654;-63
2021/07/14 00:35:15;;;;;;;16.35;10.82;;;;;;;23.90;68.00;100249.47;696637;28;43301;-63
2021/07/14 00:35:36;;;;;;;13.02;10.38;;;;;;;23.89;68.15;100252.50;700159;28;903;-63
2021/07/14 00:35:58;;;;;;;12.30;11.00;;;;;;;23.87;68.26;100258.28;699546;28;20073;-63
2021/07/14 00:36:19;;;;;;;11.95;10.57;;;;;;;23.87;68.37;100254.69;698025;28;62366;-63
2021/07/14 00:36:40;;;;;;;13.80;11.18;;;;;;;23.87;67.85;100252.78;698856;28;22316;-63
2021/07/14 00:37:02;;;;;;;13.75;11.23;;;;;;;23.88;68.31;100248.06;699135;28;22418;-63
2021/07/14 00:37:24;;;;;;;12.55;11.15;;;;;;;23.87;68.14;100250.00;698736;28;21528;-63
2021/07/14 00:37:45;;;;;;;13.40;11.23;;;;;;;23.88;67.89;100250.81;698367;28;40625;-63
2021/07/14 00:38:06;;;;;;;16.35;11.20;;;;;;;23.89;67.94;100244.22;699463;28;18614;-63
2021/07/14 00:38:27;;;;;;;13.95;11.18;;;;;;;23.89;68.00;100249.72;698917;28;18222;-63
2021/07/14 00:38:49;;;;;;;13.15;10.82;;;;;;;23.87;68.32;100244.50;699320;28;22621;-64
2021/07/14 00:39:10;;;;;;;12.93;10.98;;;;;;;23.87;68.09;100252.78;698636;28;44036;-63
2021/07/14 00:39:32;;;;;;;11.73;10.55;;;;;;;23.85;68.34;100254.13;698034;28;47313;-63
2021/07/14 00:39:55;;;;;;;12.38;10.77;;;;;;;23.84;68.50;100242.28;698624;28;20117;-63
2021/07/14 00:40:16;;;;;;;13.93;11.18;;;;;;;23.84;68.67;100241.44;696874;28;65502;-63
2021/07/14 00:40:37;;;;;;;12.20;10.63;;;;;;;23.83;68.56;100239.78;699147;28;22384;-62
2021/07/14 00:40:59;;;;;;;12.18;11.00;;;;;;;23.81;68.11;100239.22;699342;28;21525;-63
2021/07/14 00:41:21;;;;;;;12.75;10.93;;;;;;;23.80;67.85;100238.41;697969;28;45292;-63
2021/07/14 00:41:42;;;;;;;12.73;11.45;;;;;;;23.79;67.86;100239.50;697775;28;46424;-63
2021/07/14 00:42:03;;;;;;;12.43;11.23;;;;;;;23.79;68.25;100244.19;699212;28;21447;-63
2021/07/14 00:42:26;;;;;;;12.82;10.85;;;;;;;23.78;68.02;100239.75;699236;28;23457;-63
2021/07/14 00:42:47;;;;;;;12.68;11.38;;;;;;;23.77;68.33;100240.88;697387;28;62346;-63
2021/07/14 00:43:08;;;;;;;12.52;11.23;;;;;;;23.74;67.79;100245.84;698852;28;22848;-63
2021/07/14 00:43:29;;;;;;;13.07;11.02;;;;;;;23.71;67.65;100235.34;698903;28;24428;-63
2021/07/14 00:43:50;;;;;;;13.98;11.05;;;;;;;23.70;67.84;100242.00;699185;28;10789;-63
2021/07/14 00:44:14;;;;;;;12.45;11.13;;;;;;;23.69;67.89;100236.75;699017;28;22397;-63
2021/07/14 00:44:35;;;;;;;14.82;11.10;;;;;;;23.67;68.19;100241.72;697667;28;63494;-63
2021/07/14 00:44:56;;;;;;;14.85;11.60;;;;;;;23.66;68.21;100242.81;698775;28;22405;-63
2021/07/14 00:45:17;;;;;;;12.90;11.40;;;;;;;23.64;68.06;100248.63;698740;28;20486;-63
2021/07/14 00:45:38;;;;;;;12.35;11.02;;;;;;;23.62;68.22;100248.06;700140;28;911;-63
2021/07/14 00:46:19;;;;;;;12.80;11.25;;;;;;;23.61;68.44;100242.84;698989;28;21530;-63
2021/07/14 00:46:40;;;;;;;14.83;10.53;;;;;;;23.58;68.86;100244.22;695064;28;138277;-63
2021/07/14 00:47:06;;;;;;;13.02;11.00;;;;;;;23.56;68.51;100249.19;698955;28;44562;-63
2021/07/14 00:47:30;;;;;;;14.85;11.10;;;;;;;23.54;68.72;100241.19;695799;28;116064;-63
2021/07/14 00:47:55;;;;;;;12.60;11.05;;;;;;;23.53;68.92;100250.53;696787;28;92370;-63
2021/07/14 00:48:24;;;;;;;12.32;10.48;;;;;;;23.49;68.46;100249.44;695517;28;121943;-63
2021/07/14 00:48:45;;;;;;;13.15;10.88;;;;;;;23.47;69.15;100248.88;695218;28;138917;-63
2021/07/14 00:49:09;;;;;;;12.20;10.93;;;;;;;23.45;69.16;100248.34;699537;28;19058;-63
2021/07/14 00:49:31;;;;;;;13.35;11.30;;;;;;;23.44;69.18;100251.38;695877;28;104034;-63
2021/07/14 00:49:53;;;;;;;11.95;10.65;;;;;;;23.43;69.04;100245.00;698365;28;23518;-64
2021/07/14 00:50:14;;;;;;;13.07;10.73;;;;;;;23.42;68.75;100257.16;697850;28;46663;-63
2021/07/14 00:50:37;;;;;;;11.98;10.73;;;;;;;23.40;68.80;100251.06;698673;28;21534;-63
2021/07/14 00:50:58;;;;;;;13.02;11.18;;;;;;;23.38;69.01;100251.34;697721;28;44393;-63
2021/07/14 00:51:20;;;;;;;12.52;11.23;;;;;;;23.38;69.01;100248.59;698261;28;47449;-63
2021/07/14 00:51:41;;;;;;;13.93;11.00;;;;;;;23.35;69.35;100254.69;697414;28;43726;-63
2021/07/14 00:52:02;;;;;;;13.88;11.15;;;;;;;23.31;69.02;100248.06;698641;28;44468;-63
2021/07/14 00:52:24;;;;;;;12.93;11.10;;;;;;;23.33;69.50;100250.53;698782;28;23529;-63
2021/07/14 00:52:45;;;;;;;12.68;10.75;;;;;;;23.32;69.38;100258.00;698520;28;45289;-63
2021/07/14 00:53:07;;;;;;;11.77;10.63;;;;;;;23.31;69.42;100256.31;699498;28;21563;-63
2021/07/14 00:53:28;;;;;;;12.45;10.80;;;;;;;23.30;68.99;100257.41;699761;28;1489;-63
2021/07/14 00:53:51;;;;;;;13.50;10.90;;;;;;;23.28;69.48;100256.88;699351;28;4516;-63
2021/07/14 00:54:13;;;;;;;15.30;11.18;;;;;;;23.25;69.47;100262.09;698360;28;46689;-63
2021/07/14 00:54:34;;;;;;;14.63;11.55;;;;;;;23.24;69.68;100258.50;699466;28;23455;-63
2021/07/14 00:54:56;;;;;;;12.63;11.30;;;;;;;23.22;69.77;100268.97;699862;28;1812;-63
2021/07/14 00:55:26;;;;;;;12.63;11.32;;;;;;;23.22;69.89;100266.22;698012;28;61159;-63
2021/07/14 00:55:48;;;;;;;12.63;11.33;;;;;;;23.21;69.98;100268.16;699788;28;988;-63
2021/07/14 00:56:10;;;;;;;12.13;10.85;;;;;;;23.23;70.03;100267.88;699860;28;959;-63
2021/07/14 00:56:31;;;;;;;12.93;11.20;;;;;;;23.22;70.04;100266.22;699496;28;15328;-63
2021/07/14 00:56:52;;;;;;;12.65;11.30;;;;;;;23.25;69.76;100271.19;699501;28;22337;-63
2021/07/14 00:57:16;;;;;;;15.63;11.48;;;;;;;23.25;69.94;100271.19;698857;28;29568;-63
2021/07/14 00:57:37;;;;;;;14.30;11.15;;;;;;;23.25;69.91;100271.19;697704;28;69502;-63
2021/07/14 00:57:58;;;;;;;13.73;10.90;;;;;;;23.25;69.64;100268.44;698463;28;41783;-63
2021/07/14 00:58:19;;;;;;;14.13;11.23;;;;;;;23.26;69.85;100269.25;698950;28;22683;-63
2021/07/14 00:58:41;;;;;;;13.00;11.32;;;;;;;23.25;69.51;100276.69;699213;28;22365;-63
2021/07/14 00:59:03;;;;;;;12.07;10.82;;;;;;;23.26;69.72;100274.75;699730;28;21697;-63
2021/07/14 00:59:25;;;;;;;12.57;11.27;;;;;;;23.25;69.81;100271.19;695064;28;25302;-63
2021/07/14 00:59:46;;;;;;;14.05;11.32;;;;;;;23.26;69.39;100270.09;694217;28;45799;-63
2021/07/14 01:00:10;;;;;;;12.82;10.95;;;;;;;23.27;69.29;100268.97;695773;28;23566;-63
2021/07/14 01:00:31;;;;;;;12.65;11.02;;;;;;;23.26;69.23;100272.84;693900;28;92281;-63
2021/07/14 01:00:56;;;;;;;12.98;11.15;;;;;;;23.25;69.03;100278.63;696142;28;36657;-63
2021/07/14 01:01:18;;;;;;;12.40;11.10;;;;;;;23.24;69.61;100280.53;698416;28;8889;-64
2021/07/14 01:01:40;;;;;;;12.55;11.25;;;;;;;23.23;69.27;100278.91;697879;28;46457;-63
2021/07/14 01:02:02;;;;;;;13.05;11.15;;;;;;;23.21;69.39;100275.56;698849;28;46355;-63
2021/07/14 01:02:27;;;;;;;12.32;11.02;;;;;;;23.21;69.14;100278.34;698423;28;35686;-63
2021/07/14 01:02:48;;;;;;;15.07;11.38;;;;;;;23.21;69.30;100283.84;699010;28;22505;-63
2021/07/14 01:03:10;;;;;;;14.55;11.05;;;;;;;23.18;69.65;100284.38;698876;28;22397;-63
2021/07/14 01:03:36;;;;;;;13.32;10.77;;;;;;;23.18;69.21;100287.13;697907;28;69550;-63
2021/07/14 01:04:01;;;;;;;12.90;11.30;;;;;;;23.16;69.34;100281.09;694412;28;156803;-63
2021/07/14 01:04:27;;;;;;;11.65;10.38;;;;;;;23.14;69.51;100284.13;697159;28;81004;-63
2021/07/14 01:04:52;;;;;;;13.98;10.73;;;;;;;23.15;69.78;100284.94;695781;28;115174;-62
2021/07/14 01:05:17;;;;;;;15.05;11.63;;;;;;;23.14;69.56;100284.13;695538;28;116033;-63
2021/07/14 01:05:40;;;;;;;13.93;10.52;;;;;;;23.14;69.88;100275.03;696075;28;116025;-63
2021/07/14 01:06:03;;;;;;;13.30;10.80;;;;;;;23.14;69.78;100272.28;696840;28;92320;-63
2021/07/14 01:06:33;;;;;;;15.68;10.75;;;;;;;23.13;69.35;100270.63;698356;28;13917;-63
2021/07/14 01:07:02;;;;;;;12.45;10.65;;;;;;;23.12;69.53;100263.44;698010;28;61518;-63
2021/07/14 01:07:24;;;;;;;13.85;11.00;;;;;;;23.11;69.24;100270.06;697345;28;61036;-63
2021/07/14 01:07:52;;;;;;;13.57;10.98;;;;;;;23.11;69.12;100270.06;699414;28;14931;-63
2021/07/14 01:08:16;;;;;;;13.23;10.73;;;;;;;23.09;69.15;100269.50;695531;28;122071;-63
2021/07/14 01:08:44;;;;;;;14.30;10.55;;;;;;;23.08;69.25;100263.16;697603;28;55991;-63
2021/07/14 01:09:09;;;;;;;14.93;10.80;;;;;;;23.08;69.52;100265.06;697303;28;61358;-63
2021/07/14 01:09:36;;;;;;;16.10;10.88;;;;;;;23.06;69.11;100268.09;699173;28;929;-63
2021/07/14 01:10:03;;;;;;;12.00;10.18;;;;;;;23.07;69.25;100269.72;694164;28;155567;-63
2021/07/14 01:10:29;;;;;;;12.77;10.48;;;;;;;23.08;69.51;100268.69;694044;28;138021;-63
2021/07/14 01:10:55;;;;;;;13.27;10.60;;;;;;;23.07;69.63;100271.66;694613;28;138798;-63
2021/07/14 01:11:18;;;;;;;12.80;10.45;;;;;;;23.07;69.34;100274.41;695220;28;131275;-63
2021/07/14 01:11:42;;;;;;;11.43;10.02;;;;;;;23.04;69.68;100271.13;697293;28;69261;-63
2021/07/14 01:12:08;;;;;;;12.15;10.13;;;;;;;23.06;69.43;100272.75;697348;28;70272;-63
2021/07/14 01:12:35;;;;;;;11.60;10.02;;;;;;;23.04;69.53;100271.13;698202;28;60772;-63
2021/07/14 01:13:02;;;;;;;14.25;10.60;;;;;;;23.03;69.76;100268.63;695289;28;115336;-63
2021/07/14 01:13:35;;;;;;;13.50;10.90;;;;;;;23.02;69.84;100267.81;694554;28;136051;-63
2021/07/14 01:14:06;;;;;;;14.05;10.23;;;;;;;23.00;69.58;100272.75;697434;28;81260;-63
2021/07/14 01:14:42;;;;;;;13.07;10.43;;;;;;;22.97;69.60;100270.53;697866;28;60702;-63
2021/07/14 01:15:06;;;;;;;13.48;10.65;;;;;;;22.99;69.91;100268.38;694511;28;138728;-63
2021/07/14 01:15:32;;;;;;;13.57;10.55;;;;;;;23.00;69.41;100270.00;695880;28;97798;-63
2021/07/14 01:16:00;;;;;;;12.23;10.43;;;;;;;23.03;69.85;100274.97;695178;28;127040;-63
2021/07/14 01:16:24;;;;;;;10.98;9.70;;;;;;;23.06;69.62;100273.59;694789;28;138743;-63
2021/07/14 01:16:46;;;;;;;13.52;10.23;;;;;;;23.07;69.62;100279.94;698041;28;37910;-63
2021/07/14 01:17:11;;;;;;;12.02;10.25;;;;;;;23.09;69.15;100277.75;698617;28;22715;-63
2021/07/14 01:17:37;;;;;;;12.02;10.35;;;;;;;23.10;69.36;100271.97;696232;28;115308;-63
2021/07/14 01:18:02;;;;;;;11.43;10.23;;;;;;;23.12;69.33;100271.69;695210;28;137633;-63
2021/07/14 01:18:28;;;;;;;12.27;10.60;;;;;;;23.18;69.40;100278.88;697243;28;60745;-63
2021/07/14 01:18:54;;;;;;;11.05;9.75;;;;;;;23.19;69.10;100275.84;694809;28;161187;-63
2021/07/14 01:19:25;;;;;;;13.80;10.00;;;;;;;23.22;68.98;100274.50;695368;28;123039;-63
2021/07/14 01:20:05;;;;;;;10.90;9.70;;;;;;;23.25;68.51;100264.88;698084;28;60458;-63
2021/07/14 01:20:49;;;;;;;11.23;10.00;;;;;;;23.27;68.46;100259.91;698047;28;61308;-62
2021/07/14 01:21:15;;;;;;;12.27;10.30;;;;;;;23.27;68.77;100263.47;695423;28;132700;-63
2021/07/14 01:21:39;;;;;;;11.93;10.35;;;;;;;23.26;68.70;100266.50;694334;28;136719;-63
2021/07/14 01:22:07;;;;;;;13.27;10.75;;;;;;;23.24;68.96;100263.19;696598;28;93200;-63
2021/07/14 01:22:35;;;;;;;13.45;9.95;;;;;;;23.24;68.80;100260.44;694864;28;138971;-63
2021/07/14 01:23:05;;;;;;;11.93;10.05;;;;;;;23.23;68.28;100259.63;695338;28;137824;-63
2021/07/14 01:23:44;;;;;;;10.43;9.05;;;;;;;23.21;68.24;100265.41;694517;28;137891;-63
2021/07/14 01:24:09;;;;;;;11.45;9.68;;;;;;;23.20;68.84;100266.50;694133;28;157264;-63
2021/07/14 01:24:33;;;;;;;11.75;9.40;;;;;;;23.21;68.60;100261.81;696500;28;91537;-63
2021/07/14 01:24:57;;;;;;;10.80;8.95;;;;;;;23.23;68.56;100258.78;696160;28;92301;-63
2021/07/14 01:25:36;;;;;;;11.07;9.13;;;;;;;23.21;68.08;100262.66;696554;28;83838;-63
2021/07/14 01:26:11;;;;;;;12.10;9.53;;;;;;;23.19;68.15;100266.78;697650;28;61750;-62
2021/07/14 01:26:38;;;;;;;12.20;9.25;;;;;;;23.19;68.21;100272.28;694949;28;138408;-63
2021/07/14 01:27:05;;;;;;;9.90;8.95;;;;;;;23.19;67.91;100273.09;694825;28;126442;-62
2021/07/14 01:27:34;;;;;;;10.90;9.10;;;;;;;23.18;68.00;100270.63;694116;28;161770;-63
2021/07/14 01:27:58;;;;;;;12.18;9.13;;;;;;;23.19;68.26;100269.53;694479;28;137815;-62
2021/07/14 01:28:19;;;;;;;11.07;9.45;;;;;;;23.20;68.55;100273.94;696103;28;92272;-63
2021/07/14 01:28:43;;;;;;;10.60;9.50;;;;;;;23.21;68.43;100270.06;697550;28;44381;-63
2021/07/14 01:29:06;;;;;;;10.23;9.13;;;;;;;23.20;68.51;100269.25;697611;28;68118;-63
2021/07/14 01:29:28;;;;;;;10.93;9.10;;;;;;;23.21;68.26;100275.56;696872;28;69799;-63
2021/07/14 01:29:52;;;;;;;11.38;9.20;;;;;;;23.22;68.65;100266.22;698129;28;45290;-63
2021/07/14 01:30:15;;;;;;;9.90;9.00;;;;;;;23.23;68.55;100267.88;696922;28;90740;-63
2021/07/14 01:30:36;;;;;;;11.88;9.65;;;;;;;23.24;68.28;100260.44;697570;28;69390;-63
2021/07/14 01:30:58;;;;;;;11.65;9.23;;;;;;;23.25;68.47;100268.44;698895;28;21299;-63
2021/07/14 01:31:22;;;;;;;10.00;8.88;;;;;;;23.27;68.07;100268.16;698210;28;46359;-63
2021/07/14 01:31:46;;;;;;;12.73;9.40;;;;;;;23.28;68.30;100267.88;699301;28;16196;-64
2021/07/14 01:32:09;;;;;;;11.75;9.30;;;;;;;23.29;68.32;100268.72;698924;28;37642;-63
2021/07/14 01:32:33;;;;;;;10.50;9.07;;;;;;;23.29;68.43;100264.03;699852;28;1214;-64
2021/07/14 01:32:55;;;;;;;10.18;9.18;;;;;;;23.30;68.17;100262.09;698456;28;37241;-63
2021/07/14 01:33:18;;;;;;;11.82;9.40;;;;;;;23.30;68.23;100262.09;698229;28;36813;-63
2021/07/14 01:33:40;;;;;;;13.45;9.95;;;;;;;23.30;68.33;100260.16;696797;28;69412;-63
2021/07/14 01:34:03;;;;;;;13.63;9.32;;;;;;;23.28;68.00;100265.13;693736;28;67337;-62
2021/07/14 01:34:24;;;;;;;14.02;9.68;;;;;;;23.29;68.18;100260.44;696875;28;14972;-63
2021/07/14 01:34:50;;;;;;;12.80;9.68;;;;;;;23.27;68.34;100268.16;696281;28;23561;-63
2021/07/14 01:35:15;;;;;;;11.10;9.18;;;;;;;23.27;68.53;100260.72;692521;28;137747;-62
2021/07/14 01:35:40;;;;;;;12.38;8.90;;;;;;;23.26;68.29;100264.59;695854;28;93280;-62
2021/07/14 01:36:06;;;;;;;11.48;8.80;;;;;;;23.24;68.55;100258.50;696239;28;113614;-63
2021/07/14 01:36:28;;;;;;;12.95;9.15;;;;;;;23.23;68.43;100262.38;695158;28;139514;-63
2021/07/14 01:36:50;;;;;;;9.95;8.90;;;;;;;23.21;68.34;100259.06;697389;28;67865;-63
2021/07/14 01:37:12;;;;;;;11.02;8.70;;;;;;;23.21;68.23;100254.38;698433;28;45368;-63
2021/07/14 01:37:34;;;;;;;10.10;8.63;;;;;;;23.18;68.24;100265.94;698145;28;45375;-63
2021/07/14 01:37:55;;;;;;;12.27;9.32;;;;;;;23.18;68.35;100260.44;697917;28;23434;-63
2021/07/14 01:38:20;;;;;;;11.93;9.00;;;;;;;23.18;68.31;100265.09;698916;28;21575;-63
2021/07/14 01:38:42;;;;;;;9.82;8.82;;;;;;;23.16;68.41;100262.63;696335;28;104461;-63
2021/07/14 01:39:05;;;;;;;10.20;9.20;;;;;;;23.16;68.68;100261.81;697865;28;46395;-63
2021/07/14 01:39:28;;;;;;;12.43;9.18;;;;;;;23.14;68.60;100264.00;696817;28;69334;-64
2021/07/14 01:39:52;;;;;;;13.27;9.18;;;;;;;23.14;69.17;100269.53;697247;28;69459;-63
2021/07/14 01:40:15;;;;;;;13.13;9.20;;;;;;;23.14;68.81;100267.59;695251;28;92400;-63
2021/07/14 01:40:37;;;;;;;11.68;9.60;;;;;;;23.13;68.78;100267.84;697375;28;70275;-63
2021/07/14 01:40:59;;;;;;;10.30;9.20;;;;;;;23.13;68.83;100263.16;698060;28;47485;-63
2021/07/14 01:41:21;;;;;;;11.10;8.95;;;;;;;23.12;69.04;100264.28;698923;28;19713;-63
2021/07/14 01:41:45;;;;;;;11.85;9.30;;;;;;;23.13;69.21;100267.84;699073;28;1730;-63
2021/07/14 01:42:09;;;;;;;11.07;9.27;;;;;;;23.12;68.81;100266.19;696928;28;81026;-63
2021/07/14 01:42:30;;;;;;;11.82;9.20;;;;;;;23.12;69.13;100266.19;696993;28;78302;-63
2021/07/14 01:42:54;;;;;;;12.38;9.15;;;;;;;23.12;69.27;100269.78;699069;28;21523;-63
2021/07/14 01:43:15;;;;;;;10.52;9.35;;;;;;;23.14;69.01;100264.84;696298;28;89380;-62
2021/07/14 01:43:39;;;;;;;12.05;9.00;;;;;;;23.14;69.33;100258.50;699681;28;1436;-63
2021/07/14 01:44:02;;;;;;;13.18;9.30;;;;;;;23.16;69.35;100267.31;696282;28;92277;-63
2021/07/14 01:44:25;;;;;;;12.43;9.63;;;;;;;23.17;69.24;100263.47;698362;28;46381;-63
2021/07/14 01:44:49;;;;;;;12.48;9.93;;;;;;;23.18;69.06;100273.38;697322;28;72733;-63
2021/07/14 01:45:12;;;;;;;12.30;9.20;;;;;;;23.20;69.13;100271.19;695827;28;90361;-63
2021/07/14 01:45:35;;;;;;;12.65;9.60;;;;;;;23.20;68.82;100266.50;697951;28;69436;-63
2021/07/14 01:45:56;;;;;;;10.52;9.40;;;;;;;23.23;68.77;100267.03;697519;28;70346;-63
2021/07/14 01:46:20;;;;;;;11.88;9.18;;;;;;;23.24;68.62;100260.44;699918;28;905;-62
2021/07/14 01:46:47;;;;;;;12.68;10.20;;;;;;;23.25;68.79;100265.69;697571;28;62001;-62
2021/07/14 01:47:08;;;;;;;12.98;9.68;;;;;;;23.25;68.74;100268.44;697911;28;64896;-62
2021/07/14 01:47:30;;;;;;;11.02;9.50;;;;;;;23.25;68.62;100270.38;699351;28;22202;-63
2021/07/14 01:47:51;;;;;;;10.82;9.25;;;;;;;23.24;68.75;100271.47;697966;28;46496;-63
2021/07/14 01:48:14;;;;;;;10.57;9.18;;;;;;;23.23;68.29;100267.88;699027;28;21667;-63
2021/07/14 01:48:36;;;;;;;11.98;9.30;;;;;;;23.24;68.37;100261.25;697796;28;52788;-64
2021/07/14 01:49:02;;;;;;;11.68;9.23;;;;;;;23.25;68.87;100273.94;698341;28;38460;-63
2021/07/14 01:49:24;;;;;;;10.52;8.60;;;;;;;23.26;68.58;100274.75;694820;28;137261;-63
2021/07/14 01:49:45;;;;;;;10.93;8.73;;;;;;;23.27;68.51;100268.16;698475;28;47178;-62
2021/07/14 01:50:09;;;;;;;11.77;9.02;;;;;;;23.27;68.42;100268.16;698802;28;19299;-63
2021/07/14 01:50:32;;;;;;;10.30;9.20;;;;;;;23.28;68.42;100264.31;698654;28;48353;-63
2021/07/14 01:50:53;;;;;;;9.88;8.88;;;;;;;23.29;67.92;100266.81;697719;28;45252;-63
2021/07/14 01:51:15;;;;;;;10.50;9.45;;;;;;;23.30;67.89;100273.13;699550;28;1127;-63
2021/07/14 01:51:40;;;;;;;10.73;9.05;;;;;;;23.30;67.60;100262.09;698239;28;38216;-63
2021/07/14 01:52:03;;;;;;;11.73;8.77;;;;;;;23.31;67.61;100272.03;697518;28;63334;-63
2021/07/14 01:52:26;;;;;;;11.27;8.93;;;;;;;23.31;67.96;100261.00;698965;28;15005;-63
2021/07/14 01:52:54;;;;;;;10.57;8.90;;;;;;;23.32;67.56;100268.16;697656;28;60206;-63
2021/07/14 01:53:16;;;;;;;9.60;8.60;;;;;;;23.31;67.81;100267.34;698983;28;30913;-63
2021/07/14 01:53:38;;;;;;;11.23;9.07;;;;;;;23.32;67.76;100262.66;697870;28;64124;-64
2021/07/14 01:54:03;;;;;;;11.38;9.13;;;;;;;23.32;67.41;100260.75;699252;28;24685;-62
2021/07/14 01:54:25;;;;;;;13.48;8.98;;;;;;;23.32;67.48;100266.25;694951;28;135966;-63
2021/07/14 01:54:50;;;;;;;12.57;9.35;;;;;;;23.32;67.69;100271.75;698045;28;47386;-62
2021/07/14 01:55:12;;;;;;;9.77;8.77;;;;;;;23.33;67.36;100267.06;696371;28;91805;-63
2021/07/14 01:55:37;;;;;;;11.10;8.75;;;;;;;23.34;67.52;100268.72;698022;28;63196;-63